sensor_id;sensor_type;location;lat;lon;timestamp;pressure;altitude;pressure_sealevel;temperature;humidity
2036;BME280;23642;42.658;23.350;2023-01-27T00:23:18;47603.97;;;-146.31;100.00
2036;BME280;23642;42.658;23.350;2023-01-27T00:29:20;47636.94;;;-146.31;99.62
2036;BME280;23642;42.658;23.350;2023-01-27T00:32:01;47614.25;;;-146.31;100.00
2036;BME280;23642;42.658;23.350;2023-01-27T00:44:43;47608.06;;;-146.31;100.00
2036;BME280;23642;42.658;23.350;2023-01-27T00:47:32;47641.03;;;-146.31;100.00
2036;BME280;23642;42.658;23.350;2023-01-27T00:50:16;47573.03;;;-146.31;100.00
2036;BME280;23642;42.658;23.350;2023-01-27T00:52:46;47593.66;;;-146.31;100.00
2036;BME280;23642;42.658;23.350;2023-01-27T00:55:26;47517.41;;;-146.31;100.00
2036;BME280;23642;42.658;23.350;2023-01-27T00:58:00;47457.66;;;-146.31;100.00
2036;BME280;23642;42.658;23.350;2023-01-27T01:00:49;47430.88;;;-146.31;100.00
2036;BME280;23642;42.658;23.350;2023-01-27T01:03:39;47369.06;;;-146.31;100.00
2036;BME280;23642;42.658;23.350;2023-01-27T01:06:25;47346.38;;;-146.31;100.00
2036;BME280;23642;42.658;23.350;2023-01-27T01:09:20;47319.59;;;-146.31;100.00
2036;BME280;23642;42.658;23.350;2023-01-27T01:13:07;47301.06;;;-146.31;100.00
2036;BME280;23642;42.658;23.350;2023-01-27T01:15:42;47284.56;;;-146.31;100.00
2036;BME280;23642;42.658;23.350;2023-01-27T01:18:21;47251.59;;;-146.31;100.00
2036;BME280;23642;42.658;23.350;2023-01-27T01:20:51;47218.63;;;-146.31;100.00
2036;BME280;23642;42.658;23.350;2023-01-27T01:23:18;47243.34;;;-146.31;100.00
2036;BME280;23642;42.658;23.350;2023-01-27T01:25:54;47247.47;;;-146.31;100.00
2036;BME280;23642;42.658;23.350;2023-01-27T01:28:29;47237.19;;;-146.31;100.00
2036;BME280;23642;42.658;23.350;2023-01-27T01:31:07;47270.16;;;-146.31;100.00
2036;BME280;23642;42.658;23.350;2023-01-27T01:33:48;47280.44;;;-146.31;100.00
2036;BME280;23642;42.658;23.350;2023-01-27T01:36:18;47278.38;;;-146.31;100.00
2036;BME280;23642;42.658;23.350;2023-01-27T01:38:58;47307.22;;;-146.31;100.00
2036;BME280;23642;42.658;23.350;2023-01-27T01:41:31;47344.31;;;-146.31;100.00
2036;BME280;23642;42.658;23.350;2023-01-27T01:44:27;47323.72;;;-146.31;100.00
2036;BME280;23642;42.658;23.350;2023-01-27T01:47:14;47334.03;;;-146.31;100.00
2036;BME280;23642;42.658;23.350;2023-01-27T01:49:53;47307.22;;;-146.31;100.00
2036;BME280;23642;42.658;23.350;2023-01-27T01:52:37;47434.97;;;-146.31;100.00
2036;BME280;23642;42.658;23.350;2023-01-27T01:55:09;47399.97;;;-146.31;100.00
2036;BME280;23642;42.658;23.350;2023-01-27T01:57:42;47375.22;;;-146.31;100.00
2036;BME280;23642;42.658;23.350;2023-01-27T02:00:28;47367.00;;;-146.31;100.00
2036;BME280;23642;42.658;23.350;2023-01-27T02:03:34;47395.84;;;-146.31;100.00
2036;BME280;23642;42.658;23.350;2023-01-27T02:06:11;47437.03;;;-146.31;100.00
2036;BME280;23642;42.658;23.350;2023-01-27T02:08:57;47463.84;;;-146.31;100.00
2036;BME280;23642;42.658;23.350;2023-01-27T02:11:39;47441.16;;;-146.31;100.00
2036;BME280;23642;42.658;23.350;2023-01-27T02:14:15;47402.03;;;-146.31;100.00
2036;BME280;23642;42.658;23.350;2023-01-27T02:16:54;47414.38;;;-146.31;100.00
2036;BME280;23642;42.658;23.350;2023-01-27T02:19:38;47375.22;;;-146.31;100.00
2036;BME280;23642;42.658;23.350;2023-01-27T02:22:23;47331.97;;;-146.31;100.00
2036;BME280;23642;42.658;23.350;2023-01-27T02:25:02;47270.16;;;-146.31;100.00
2036;BME280;23642;42.658;23.350;2023-01-27T02:27:43;47288.69;;;-146.31;100.00
2036;BME280;23642;42.658;23.350;2023-01-27T02:30:13;47282.50;;;-146.31;100.00
2036;BME280;23642;42.658;23.350;2023-01-27T02:32:44;47288.69;;;-146.31;100.00
2036;BME280;23642;42.658;23.350;2023-01-27T02:35:19;47329.91;;;-146.31;100.00
2036;BME280;23642;42.658;23.350;2023-01-27T02:38:05;47338.13;;;-146.31;100.00
2036;BME280;23642;42.658;23.350;2023-01-27T02:40:49;47367.00;;;-146.31;100.00
2036;BME280;23642;42.658;23.350;2023-01-27T02:43:26;47371.09;;;-146.31;100.00
2036;BME280;23642;42.658;23.350;2023-01-27T02:45:58;47389.66;;;-146.31;100.00
2036;BME280;23642;42.658;23.350;2023-01-27T02:48:27;47340.19;;;-146.31;100.00
2036;BME280;23642;42.658;23.350;2023-01-27T02:51:07;47360.81;;;-146.31;100.00
2036;BME280;23642;42.658;23.350;2023-01-27T02:53:34;47364.94;;;-146.31;100.00
2036;BME280;23642;42.658;23.350;2023-01-27T02:56:07;47329.91;;;-146.31;100.00
2036;BME280;23642;42.658;23.350;2023-01-27T03:01:59;47340.19;;;-146.31;100.00
2036;BME280;23642;42.658;23.350;2023-01-27T03:04:31;47307.22;;;-146.31;100.00
2036;BME280;23642;42.658;23.350;2023-01-27T03:07:06;47371.09;;;-146.31;100.00
2036;BME280;23642;42.658;23.350;2023-01-27T03:09:46;47344.31;;;-146.31;100.00
2036;BME280;23642;42.658;23.350;2023-01-27T03:12:31;47321.66;;;-146.31;100.00
2036;BME280;23642;42.658;23.350;2023-01-27T03:15:15;47323.72;;;-146.31;100.00
2036;BME280;23642;42.658;23.350;2023-01-27T03:24:48;47290.75;;;-146.31;100.00
2036;BME280;23642;42.658;23.350;2023-01-27T03:27:23;47286.63;;;-146.31;100.00
2036;BME280;23642;42.658;23.350;2023-01-27T03:30:12;47299.00;;;-146.31;100.00
2036;BME280;23642;42.658;23.350;2023-01-27T03:33:11;47233.06;;;-146.31;100.00
2036;BME280;23642;42.658;23.350;2023-01-27T03:36:09;47177.44;;;-146.31;100.00
2036;BME280;23642;42.658;23.350;2023-01-27T03:39:13;47200.09;;;-146.31;100.00
2036;BME280;23642;42.658;23.350;2023-01-27T03:42:07;47150.63;;;-146.31;100.00
2036;BME280;23642;42.658;23.350;2023-01-27T03:48:11;47097.06;;;-146.31;100.00
2036;BME280;23642;42.658;23.350;2023-01-27T03:50:51;47043.50;;;-146.31;100.00
2036;BME280;23642;42.658;23.350;2023-01-27T03:53:39;47027.03;;;-146.31;100.00
2036;BME280;23642;42.658;23.350;2023-01-27T03:56:24;47066.16;;;-146.31;100.00
2036;BME280;23642;42.658;23.350;2023-01-27T03:59:19;47088.81;;;-146.31;100.00
2036;BME280;23642;42.658;23.350;2023-01-27T04:02:15;47035.25;;;-146.31;100.00
2036;BME280;23642;42.658;23.350;2023-01-27T04:05:54;47059.97;;;-146.31;100.00
2036;BME280;23642;42.658;23.350;2023-01-27T04:08:45;47090.88;;;-146.31;100.00
2036;BME280;23642;42.658;23.350;2023-01-27T04:11:24;47076.47;;;-146.31;100.00
2036;BME280;23642;42.658;23.350;2023-01-27T04:14:22;47074.41;;;-146.31;100.00
2036;BME280;23642;42.658;23.350;2023-01-27T04:16:59;47068.22;;;-146.31;100.00
2036;BME280;23642;42.658;23.350;2023-01-27T04:19:51;47090.88;;;-146.31;100.00
2036;BME280;23642;42.658;23.350;2023-01-27T04:22:27;47090.88;;;-146.31;100.00
2036;BME280;23642;42.658;23.350;2023-01-27T04:25:13;47156.81;;;-146.31;100.00
2036;BME280;23642;42.658;23.350;2023-01-27T04:27:56;47123.84;;;-146.31;100.00
2036;BME280;23642;42.658;23.350;2023-01-27T04:30:33;47152.69;;;-146.31;100.00
2036;BME280;23642;42.658;23.350;2023-01-27T04:33:10;47160.94;;;-146.31;100.00
2036;BME280;23642;42.658;23.350;2023-01-27T04:35:49;47191.84;;;-146.31;100.00
2036;BME280;23642;42.658;23.350;2023-01-27T04:38:26;47286.63;;;-146.31;100.00
2036;BME280;23642;42.658;23.350;2023-01-27T04:41:04;47329.91;;;-146.31;100.00
2036;BME280;23642;42.658;23.350;2023-01-27T04:47:37;47315.47;;;-146.31;100.00
2036;BME280;23642;42.658;23.350;2023-01-27T04:50:30;47439.09;;;-146.31;100.00
2036;BME280;23642;42.658;23.350;2023-01-27T04:53:14;47426.75;;;-146.31;99.81
2036;BME280;23642;42.658;23.350;2023-01-27T04:56:04;47342.25;;;-146.31;100.00
2036;BME280;23642;42.658;23.350;2023-01-27T04:58:48;47261.91;;;-146.31;100.00
2036;BME280;23642;42.658;23.350;2023-01-27T05:01:35;47193.91;;;-146.31;100.00
2036;BME280;23642;42.658;23.350;2023-01-27T05:04:20;47113.56;;;-146.31;100.00
2036;BME280;23642;42.658;23.350;2023-01-27T05:07:18;47123.84;;;-146.31;100.00
2036;BME280;23642;42.658;23.350;2023-01-27T05:09:54;47144.47;;;-146.31;100.00
2036;BME280;23642;42.658;23.350;2023-01-27T05:12:24;47024.97;;;-146.31;100.00
2036;BME280;23642;42.658;23.350;2023-01-27T05:15:18;46979.63;;;-146.31;100.00
2036;BME280;23642;42.658;23.350;2023-01-27T05:17:56;46973.44;;;-146.31;100.00
2036;BME280;23642;42.658;23.350;2023-01-27T05:20:39;46926.06;;;-146.31;100.00
2036;BME280;23642;42.658;23.350;2023-01-27T05:23:11;46876.63;;;-146.31;100.00
2036;BME280;23642;42.658;23.350;2023-01-27T05:28:56;46864.25;;;-146.31;100.00
2036;BME280;23642;42.658;23.350;2023-01-27T05:31:31;46891.03;;;-146.31;100.00
2036;BME280;23642;42.658;23.350;2023-01-27T05:34:11;46878.69;;;-146.31;100.00
2036;BME280;23642;42.658;23.350;2023-01-27T05:36:52;46936.38;;;-146.31;100.00
2036;BME280;23642;42.658;23.350;2023-01-27T05:39:37;46893.09;;;-146.31;100.00
2036;BME280;23642;42.658;23.350;2023-01-27T05:42:21;46833.34;;;-146.31;100.00
2036;BME280;23642;42.658;23.350;2023-01-27T05:45:01;46851.91;;;-146.31;100.00
2036;BME280;23642;42.658;23.350;2023-01-27T05:47:55;46783.91;;;-146.31;100.00
2036;BME280;23642;42.658;23.350;2023-01-27T05:50:33;46726.22;;;-146.31;100.00
2036;BME280;23642;42.658;23.350;2023-01-27T05:53:06;46763.31;;;-146.31;100.00
2036;BME280;23642;42.658;23.350;2023-01-27T05:55:36;46689.16;;;-146.31;100.00
2036;BME280;23642;42.658;23.350;2023-01-27T05:58:17;46676.78;;;-146.31;100.00
2036;BME280;23642;42.658;23.350;2023-01-27T06:00:53;46670.59;;;-146.31;100.00
2036;BME280;23642;42.658;23.350;2023-01-27T06:03:31;46668.53;;;-146.31;100.00
2036;BME280;23642;42.658;23.350;2023-01-27T06:06:30;46722.09;;;-146.31;100.00
2036;BME280;23642;42.658;23.350;2023-01-27T06:16:06;46917.81;;;-146.31;100.00
2036;BME280;23642;42.658;23.350;2023-01-27T06:18:44;46963.16;;;-146.31;100.00
2036;BME280;23642;42.658;23.350;2023-01-27T06:21:15;46956.97;;;-146.31;100.00
2036;BME280;23642;42.658;23.350;2023-01-27T06:23:54;47049.69;;;-146.31;100.00
2036;BME280;23642;42.658;23.350;2023-01-27T06:26:30;47068.22;;;-146.31;100.00
2036;BME280;23642;42.658;23.350;2023-01-27T06:29:24;47101.19;;;-146.31;100.00
2036;BME280;23642;42.658;23.350;2023-01-27T06:32:27;47181.53;;;-146.31;100.00
2036;BME280;23642;42.658;23.350;2023-01-27T06:35:01;47208.34;;;-146.31;100.00
2036;BME280;23642;42.658;23.350;2023-01-27T06:37:50;47204.22;;;-146.31;100.00
2036;BME280;23642;42.658;23.350;2023-01-27T06:40:29;47163.00;;;-146.31;100.00
2036;BME280;23642;42.658;23.350;2023-01-27T06:42:56;47208.34;;;-146.31;100.00
2036;BME280;23642;42.658;23.350;2023-01-27T06:45:25;47245.41;;;-146.31;100.00
2036;BME280;23642;42.658;23.350;2023-01-27T06:47:59;47336.09;;;-146.31;99.72
2036;BME280;23642;42.658;23.350;2023-01-27T06:50:27;47373.16;;;-146.31;99.57
2036;BME280;23642;42.658;23.350;2023-01-27T06:52:59;47593.66;;;-146.31;98.76
2036;BME280;23642;42.658;23.350;2023-01-27T06:55:26;47614.25;;;-146.31;98.49
2036;BME280;23642;42.658;23.350;2023-01-27T06:57:54;47649.28;;;-146.31;98.71
2036;BME280;23642;42.658;23.350;2023-01-27T07:00:22;47688.44;;;-146.31;98.91
2036;BME280;23642;42.658;23.350;2023-01-27T07:02:59;47715.22;;;-146.31;98.18
2036;BME280;23642;42.658;23.350;2023-01-27T07:05:29;47721.41;;;-146.31;98.85
2036;BME280;23642;42.658;23.350;2023-01-27T07:08:03;47760.56;;;-146.31;98.86
2036;BME280;23642;42.658;23.350;2023-01-27T07:10:30;47810.03;;;-146.31;97.56
2036;BME280;23642;42.658;23.350;2023-01-27T07:13:13;47902.75;;;-146.31;98.05
2036;BME280;23642;42.658;23.350;2023-01-27T07:15:43;47894.53;;;-146.31;98.33
2036;BME280;23642;42.658;23.350;2023-01-27T07:18:12;47892.47;;;-146.31;97.81
2036;BME280;23642;42.658;23.350;2023-01-27T07:20:40;47943.97;;;-146.31;97.67
2036;BME280;23642;42.658;23.350;2023-01-27T07:23:08;47999.63;;;-146.31;97.18
2036;BME280;23642;42.658;23.350;2023-01-27T07:25:40;48020.22;;;-146.31;97.39
2036;BME280;23642;42.658;23.350;2023-01-27T07:28:09;48082.06;;;-146.31;97.20
2036;BME280;23642;42.658;23.350;2023-01-27T07:30:41;48112.97;;;-146.31;97.39
2036;BME280;23642;42.658;23.350;2023-01-27T07:33:11;48108.84;;;-146.31;97.16
2036;BME280;23642;42.658;23.350;2023-01-27T07:35:46;48150.06;;;-146.31;97.41
2036;BME280;23642;42.658;23.350;2023-01-27T07:38:25;48222.22;;;-146.31;96.32
2036;BME280;23642;42.658;23.350;2023-01-27T07:40:52;48240.75;;;-146.31;96.30
2036;BME280;23642;42.658;23.350;2023-01-27T07:43:20;48263.44;;;-146.31;95.72
2036;BME280;23642;42.658;23.350;2023-01-27T07:45:52;48284.03;;;-146.31;96.53
2036;BME280;23642;42.658;23.350;2023-01-27T07:48:20;48279.91;;;-146.31;96.71
2036;BME280;23642;42.658;23.350;2023-01-27T07:50:47;48246.94;;;-146.31;96.90
2036;BME280;23642;42.658;23.350;2023-01-27T07:53:16;48240.75;;;-146.31;97.14
2036;BME280;23642;42.658;23.350;2023-01-27T07:55:43;48244.88;;;-146.31;97.09
2036;BME280;23642;42.658;23.350;2023-01-27T07:58:11;48218.09;;;-146.31;96.76
2036;BME280;23642;42.658;23.350;2023-01-27T08:00:57;48292.28;;;-146.31;97.09
2036;BME280;23642;42.658;23.350;2023-01-27T08:03:25;48333.50;;;-146.31;96.69
2036;BME280;23642;42.658;23.350;2023-01-27T08:05:57;48411.84;;;-146.31;96.24
2036;BME280;23642;42.658;23.350;2023-01-27T08:08:27;48508.72;;;-146.31;95.33
2036;BME280;23642;42.658;23.350;2023-01-27T08:11:07;48547.88;;;-146.31;94.84
2036;BME280;23642;42.658;23.350;2023-01-27T08:13:35;48655.06;;;-146.31;93.67
2036;BME280;23642;42.658;23.350;2023-01-27T08:16:10;48685.97;;;-146.31;94.13
2036;BME280;23642;42.658;23.350;2023-01-27T08:18:51;48696.28;;;-146.31;94.08
2036;BME280;23642;42.658;23.350;2023-01-27T08:21:43;48813.78;;;-146.31;93.86
2036;BME280;23642;42.658;23.350;2023-01-27T08:24:32;48766.38;;;-146.31;94.15
2036;BME280;23642;42.658;23.350;2023-01-27T08:27:05;48762.25;;;-146.31;94.50
2036;BME280;23642;42.658;23.350;2023-01-27T08:29:32;48770.50;;;-146.31;94.03
2036;BME280;23642;42.658;23.350;2023-01-27T08:31:59;48766.38;;;-146.31;94.51
2036;BME280;23642;42.658;23.350;2023-01-27T08:34:33;48747.81;;;-146.31;95.06
2036;BME280;23642;42.658;23.350;2023-01-27T08:37:03;48760.19;;;-146.31;94.54
2036;BME280;23642;42.658;23.350;2023-01-27T08:39:38;48764.31;;;-146.31;94.44
2036;BME280;23642;42.658;23.350;2023-01-27T08:42:05;48791.09;;;-146.31;94.41
2036;BME280;23642;42.658;23.350;2023-01-27T08:44:43;48762.25;;;-146.31;93.98
2036;BME280;23642;42.658;23.350;2023-01-27T08:47:12;48735.44;;;-146.31;95.03
2036;BME280;23642;42.658;23.350;2023-01-27T08:50:01;48791.09;;;-146.31;94.94
2036;BME280;23642;42.658;23.350;2023-01-27T08:52:51;48772.56;;;-146.31;94.56
2036;BME280;23642;42.658;23.350;2023-01-27T08:55:20;48799.34;;;-146.31;94.79
2036;BME280;23642;42.658;23.350;2023-01-27T08:57:51;48805.53;;;-146.31;94.76
2036;BME280;23642;42.658;23.350;2023-01-27T09:00:21;48749.88;;;-146.31;95.15
2036;BME280;23642;42.658;23.350;2023-01-27T09:02:49;48768.44;;;-146.31;94.78
2036;BME280;23642;42.658;23.350;2023-01-27T09:05:18;48756.06;;;-146.31;95.30
2036;BME280;23642;42.658;23.350;2023-01-27T09:07:50;48774.63;;;-146.31;94.68
2036;BME280;23642;42.658;23.350;2023-01-27T09:10:26;48813.78;;;-146.31;94.79
2036;BME280;23642;42.658;23.350;2023-01-27T09:12:53;48817.91;;;-146.31;94.75
2036;BME280;23642;42.658;23.350;2023-01-27T09:15:20;48881.81;;;-146.31;93.97
2036;BME280;23642;42.658;23.350;2023-01-27T09:17:49;48877.69;;;-146.31;94.23
2036;BME280;23642;42.658;23.350;2023-01-27T09:20:20;48910.66;;;-146.31;94.87
2036;BME280;23642;42.658;23.350;2023-01-27T09:22:53;48885.94;;;-146.31;94.60
2036;BME280;23642;42.658;23.350;2023-01-27T09:25:20;48912.72;;;-146.31;93.83
2036;BME280;23642;42.658;23.350;2023-01-27T09:27:47;48873.56;;;-146.31;94.21
2036;BME280;23642;42.658;23.350;2023-01-27T09:30:15;48865.31;;;-146.31;94.94
2036;BME280;23642;42.658;23.350;2023-01-27T09:33:00;48881.81;;;-146.31;94.44
2036;BME280;23642;42.658;23.350;2023-01-27T09:35:44;48937.47;;;-146.31;94.18
2036;BME280;23642;42.658;23.350;2023-01-27T09:38:22;48867.38;;;-146.31;95.66
2036;BME280;23642;42.658;23.350;2023-01-27T09:41:08;48782.84;;;-146.31;96.18
2036;BME280;23642;42.658;23.350;2023-01-27T09:43:56;48706.59;;;-146.31;96.22
2036;BME280;23642;42.658;23.350;2023-01-27T09:46:33;48650.94;;;-146.31;97.33
2036;BME280;23642;42.658;23.350;2023-01-27T09:49:25;48574.66;;;-146.31;97.20
2036;BME280;23642;42.658;23.350;2023-01-27T09:52:09;48502.53;;;-146.31;97.32
2036;BME280;23642;42.658;23.350;2023-01-27T09:54:52;48467.47;;;-146.31;97.57
2036;BME280;23642;42.658;23.350;2023-01-27T09:57:31;48465.41;;;-146.31;97.48
2036;BME280;23642;42.658;23.350;2023-01-27T10:00:13;48444.81;;;-146.31;97.26
2036;BME280;23642;42.658;23.350;2023-01-27T10:06:10;48475.72;;;-146.31;96.81
2036;BME280;23642;42.658;23.350;2023-01-27T10:09:02;48519.00;;;-146.31;96.97
2036;BME280;23642;42.658;23.350;2023-01-27T10:11:37;48459.25;;;-146.31;97.26
2036;BME280;23642;42.658;23.350;2023-01-27T10:14:17;48407.72;;;-146.31;97.81
2036;BME280;23642;42.658;23.350;2023-01-27T10:19:51;48345.88;;;-146.31;97.44
2036;BME280;23642;42.658;23.350;2023-01-27T10:22:33;48341.75;;;-146.31;97.73
2036;BME280;23642;42.658;23.350;2023-01-27T10:25:17;48358.25;;;-146.31;97.56
2036;BME280;23642;42.658;23.350;2023-01-27T10:27:48;48382.97;;;-146.31;97.34
2036;BME280;23642;42.658;23.350;2023-01-27T10:30:26;48387.09;;;-146.31;97.90
2036;BME280;23642;42.658;23.350;2023-01-27T10:33:02;48339.69;;;-146.31;97.67
2036;BME280;23642;42.658;23.350;2023-01-27T10:35:33;48401.53;;;-146.31;97.21
2036;BME280;23642;42.658;23.350;2023-01-27T10:38:09;48403.59;;;-146.31;96.92
2036;BME280;23642;42.658;23.350;2023-01-27T10:40:49;48418.00;;;-146.31;97.00
2036;BME280;23642;42.658;23.350;2023-01-27T10:43:26;48366.47;;;-146.31;97.86
2036;BME280;23642;42.658;23.350;2023-01-27T10:45:59;48370.59;;;-146.31;98.11
2036;BME280;23642;42.658;23.350;2023-01-27T10:48:40;48319.09;;;-146.31;97.73
2036;BME280;23642;42.658;23.350;2023-01-27T10:51:13;48325.25;;;-146.31;97.99
2036;BME280;23642;42.658;23.350;2023-01-27T10:53:53;48329.38;;;-146.31;98.09
2036;BME280;23642;42.658;23.350;2023-01-27T10:56:30;48308.78;;;-146.31;97.69
2036;BME280;23642;42.658;23.350;2023-01-27T10:59:03;48308.78;;;-146.31;97.76
2036;BME280;23642;42.658;23.350;2023-01-27T11:01:35;48296.41;;;-146.31;97.88
2036;BME280;23642;42.658;23.350;2023-01-27T11:04:10;48218.09;;;-146.31;98.01
2036;BME280;23642;42.658;23.350;2023-01-27T11:06:40;48172.75;;;-146.31;98.51
2036;BME280;23642;42.658;23.350;2023-01-27T11:09:22;48100.63;;;-146.31;98.72
2036;BME280;23642;42.658;23.350;2023-01-27T11:11:57;48094.44;;;-146.31;98.77
2036;BME280;23642;42.658;23.350;2023-01-27T11:14:29;48131.53;;;-146.31;98.92
2036;BME280;23642;42.658;23.350;2023-01-27T11:17:02;48131.53;;;-146.31;98.24
2036;BME280;23642;42.658;23.350;2023-01-27T11:19:44;48131.53;;;-146.31;98.62
2036;BME280;23642;42.658;23.350;2023-01-27T11:22:21;48115.03;;;-146.31;98.49
2036;BME280;23642;42.658;23.350;2023-01-27T11:24:54;48065.56;;;-146.31;98.76
2036;BME280;23642;42.658;23.350;2023-01-27T11:27:35;48094.44;;;-146.31;98.77
2036;BME280;23642;42.658;23.350;2023-01-27T11:30:12;48135.66;;;-146.31;98.71
2036;BME280;23642;42.658;23.350;2023-01-27T11:32:50;48168.63;;;-146.31;97.76
2036;BME280;23642;42.658;23.350;2023-01-27T11:35:23;48183.06;;;-146.31;97.71
2036;BME280;23642;42.658;23.350;2023-01-27T11:37:51;48176.88;;;-146.31;97.76
2036;BME280;23642;42.658;23.350;2023-01-27T11:40:25;48172.75;;;-146.31;98.13
2036;BME280;23642;42.658;23.350;2023-01-27T11:42:57;48075.88;;;-146.31;98.51
2036;BME280;23642;42.658;23.350;2023-01-27T11:45:49;48077.94;;;-146.31;98.24
2036;BME280;23642;42.658;23.350;2023-01-27T11:48:20;48133.59;;;-146.31;98.10
2036;BME280;23642;42.658;23.350;2023-01-27T11:50:47;48164.50;;;-146.31;97.83
2036;BME280;23642;42.658;23.350;2023-01-27T11:53:19;48207.78;;;-146.31;97.91
2036;BME280;23642;42.658;23.350;2023-01-27T11:55:50;48232.50;;;-146.31;97.28
2036;BME280;23642;42.658;23.350;2023-01-27T12:05:30;48288.16;;;-146.31;97.11
2036;BME280;23642;42.658;23.350;2023-01-27T12:08:04;48354.13;;;-146.31;97.20
2036;BME280;23642;42.658;23.350;2023-01-27T12:10:36;48356.19;;;-146.31;97.06
2036;BME280;23642;42.658;23.350;2023-01-27T12:13:08;48395.34;;;-146.31;97.21
2036;BME280;23642;42.658;23.350;2023-01-27T12:15:36;48405.66;;;-146.31;96.66
2036;BME280;23642;42.658;23.350;2023-01-27T12:18:11;48459.25;;;-146.31;96.93
2036;BME280;23642;42.658;23.350;2023-01-27T12:20:42;48444.81;;;-146.31;97.09
2036;BME280;23642;42.658;23.350;2023-01-27T12:23:22;48453.06;;;-146.31;97.31
2036;BME280;23642;42.658;23.350;2023-01-27T12:25:57;48510.78;;;-146.31;96.90
2036;BME280;23642;42.658;23.350;2023-01-27T12:28:29;48533.44;;;-146.31;96.62
2036;BME280;23642;42.658;23.350;2023-01-27T12:31:04;48574.66;;;-146.31;96.55
2036;BME280;23642;42.658;23.350;2023-01-27T12:33:33;48597.34;;;-146.31;96.06
2036;BME280;23642;42.658;23.350;2023-01-27T12:36:11;48725.13;;;-146.31;95.59
2036;BME280;23642;42.658;23.350;2023-01-27T12:38:44;48807.59;;;-146.31;95.51
2036;BME280;23642;42.658;23.350;2023-01-27T12:41:19;48807.59;;;-146.31;94.51
2036;BME280;23642;42.658;23.350;2023-01-27T12:43:52;48828.22;;;-146.31;94.67
2036;BME280;23642;42.658;23.350;2023-01-27T12:46:22;48873.56;;;-146.31;94.64
2036;BME280;23642;42.658;23.350;2023-01-27T12:48:51;48900.34;;;-146.31;94.42
2036;BME280;23642;42.658;23.350;2023-01-27T12:51:21;48960.16;;;-146.31;94.04
2036;BME280;23642;42.658;23.350;2023-01-27T12:53:50;48986.94;;;-146.31;94.41
2036;BME280;23642;42.658;23.350;2023-01-27T12:56:38;48916.84;;;-146.31;95.06
2036;BME280;23642;42.658;23.350;2023-01-27T12:59:20;48869.44;;;-146.31;95.95
2036;BME280;23642;42.658;23.350;2023-01-27T13:02:10;48912.72;;;-146.31;95.29
2036;BME280;23642;42.658;23.350;2023-01-27T13:04:42;48989.00;;;-146.31;95.44
2036;BME280;23642;42.658;23.350;2023-01-27T13:07:13;49019.94;;;-146.31;95.00
2036;BME280;23642;42.658;23.350;2023-01-27T13:09:47;49017.88;;;-146.31;95.34
2036;BME280;23642;42.658;23.350;2023-01-27T13:12:20;48970.44;;;-146.31;95.44
2036;BME280;23642;42.658;23.350;2023-01-27T13:14:50;49005.50;;;-146.31;94.67
2036;BME280;23642;42.658;23.350;2023-01-27T13:17:37;48989.00;;;-146.31;95.44
2036;BME280;23642;42.658;23.350;2023-01-27T13:20:16;48947.78;;;-146.31;95.10
2036;BME280;23642;42.658;23.350;2023-01-27T13:22:46;48782.84;;;-146.31;95.69
2036;BME280;23642;42.658;23.350;2023-01-27T13:25:18;48716.91;;;-146.31;96.31
2036;BME280;23642;42.658;23.350;2023-01-27T13:27:54;48630.31;;;-146.31;96.89
2036;BME280;23642;42.658;23.350;2023-01-27T13:30:27;48535.50;;;-146.31;97.75
2036;BME280;23642;42.658;23.350;2023-01-27T13:33:01;48494.28;;;-146.31;97.40
2036;BME280;23642;42.658;23.350;2023-01-27T13:35:33;48473.66;;;-146.31;97.97
2036;BME280;23642;42.658;23.350;2023-01-27T13:38:05;48455.13;;;-146.31;97.59
2036;BME280;23642;42.658;23.350;2023-01-27T13:40:38;48389.16;;;-146.31;97.39
2036;BME280;23642;42.658;23.350;2023-01-27T13:43:14;48341.75;;;-146.31;97.66
2036;BME280;23642;42.658;23.350;2023-01-27T13:46:29;48327.31;;;-146.31;97.91
2036;BME280;23642;42.658;23.350;2023-01-27T13:49:00;48323.19;;;-146.31;97.64
2036;BME280;23642;42.658;23.350;2023-01-27T13:51:43;48312.91;;;-146.31;98.26
2036;BME280;23642;42.658;23.350;2023-01-27T13:54:13;48312.91;;;-146.31;97.56
2036;BME280;23642;42.658;23.350;2023-01-27T13:56:49;48284.03;;;-146.31;97.51
2036;BME280;23642;42.658;23.350;2023-01-27T13:59:39;48304.66;;;-146.31;97.69
2036;BME280;23642;42.658;23.350;2023-01-27T14:02:46;48321.13;;;-146.31;97.40
2036;BME280;23642;42.658;23.350;2023-01-27T14:05:45;48409.78;;;-146.31;97.21
2036;BME280;23642;42.658;23.350;2023-01-27T14:11:19;48422.13;;;-146.31;96.96
2036;BME280;23642;42.658;23.350;2023-01-27T14:16:46;48465.41;;;-146.31;97.16
2036;BME280;23642;42.658;23.350;2023-01-27T14:19:30;48457.19;;;-146.31;96.74
2036;BME280;23642;42.658;23.350;2023-01-27T14:22:08;48481.91;;;-146.31;96.74
2036;BME280;23642;42.658;23.350;2023-01-27T14:24:46;48490.16;;;-146.31;96.67
2036;BME280;23642;42.658;23.350;2023-01-27T14:27:25;48523.13;;;-146.31;96.55
2036;BME280;23642;42.658;23.350;2023-01-27T14:30:14;48506.66;;;-146.31;96.76
2036;BME280;23642;42.658;23.350;2023-01-27T14:32:51;48516.94;;;-146.31;96.41
2036;BME280;23642;42.658;23.350;2023-01-27T14:35:41;48529.31;;;-146.31;96.29
2036;BME280;23642;42.658;23.350;2023-01-27T14:41:38;48535.50;;;-146.31;97.06
2036;BME280;23642;42.658;23.350;2023-01-27T14:44:28;48473.66;;;-146.31;96.85
2036;BME280;23642;42.658;23.350;2023-01-27T14:47:13;48440.69;;;-146.31;97.21
2036;BME280;23642;42.658;23.350;2023-01-27T14:50:01;48477.78;;;-146.31;96.54
2036;BME280;23642;42.658;23.350;2023-01-27T14:52:38;48477.78;;;-146.31;96.74
2036;BME280;23642;42.658;23.350;2023-01-27T14:55:34;48510.78;;;-146.31;97.10
2036;BME280;23642;42.658;23.350;2023-01-27T14:58:26;48494.28;;;-146.31;96.81